createdAt,value
2023-01-19T00:00:52.110Z,82.55
2023-01-19T00:03:18.602Z,83.10
2023-01-19T00:05:45.372Z,83.18
2023-01-19T00:08:15.271Z,82.87
2023-01-19T00:10:46.710Z,83.11
2023-01-19T00:13:14.429Z,82.98
2023-01-19T00:15:40.910Z,83.25
2023-01-19T00:18:09.695Z,82.71
2023-01-19T00:20:37.542Z,82.86
2023-01-19T00:23:04.699Z,82.51
2023-01-19T00:25:31.180Z,82.67
2023-01-19T00:27:58.893Z,82.73
2023-01-19T00:30:26.888Z,82.90
2023-01-19T00:32:53.339Z,82.50
2023-01-19T00:35:19.912Z,83.11
2023-01-19T00:37:46.349Z,83.13
2023-01-19T00:40:13.944Z,83.49
2023-01-19T00:42:40.445Z,83.62
2023-01-19T00:45:09.230Z,83.17
2023-01-19T00:47:35.870Z,83.94
2023-01-19T00:50:03.446Z,83.87
2023-01-19T00:52:29.861Z,83.76
2023-01-19T00:54:56.303Z,84.16
2023-01-19T00:57:23.516Z,84.68
2023-01-19T00:59:50.084Z,84.75
2023-01-19T01:02:16.707Z,84.60
2023-01-19T01:04:43.300Z,84.41
2023-01-19T01:07:09.732Z,84.05
2023-01-19T01:09:36.520Z,84.08
2023-01-19T01:12:03.587Z,84.63
2023-01-19T01:14:32.423Z,83.77
2023-01-19T01:16:58.928Z,83.78
2023-01-19T01:19:25.323Z,83.57
2023-01-19T01:21:51.795Z,82.94
2023-01-19T01:24:18.764Z,83.02
2023-01-19T01:26:45.174Z,83.06
2023-01-19T01:29:11.787Z,83.22
2023-01-19T01:31:38.549Z,83.49
2023-01-19T01:34:05.679Z,83.94
2023-01-19T01:36:33.393Z,83.97
2023-01-19T01:39:00.223Z,84.23
2023-01-19T01:41:27.451Z,84.28
2023-01-19T01:43:58.431Z,84.80
2023-01-19T01:46:26.791Z,84.87
2023-01-19T01:49:12.027Z,84.96
2023-01-19T01:51:52.192Z,85.02
2023-01-19T01:54:33.476Z,85.16
2023-01-19T01:57:04.066Z,84.62
2023-01-19T01:59:39.285Z,85.08
2023-01-19T02:02:51.467Z,85.00
2023-01-19T02:05:33.501Z,85.68
2023-01-19T02:08:45.043Z,85.78
2023-01-19T02:11:30.133Z,85.44
2023-01-19T02:13:56.962Z,85.36
2023-01-19T02:16:23.533Z,85.59
2023-01-19T02:18:49.952Z,86.26
2023-01-19T02:21:23.702Z,86.21
2023-01-19T02:23:58.112Z,86.82
2023-01-19T02:26:30.959Z,86.97
2023-01-19T02:29:08.462Z,87.39
2023-01-19T02:31:37.305Z,87.41
2023-01-19T02:34:05.983Z,87.06
2023-01-19T02:36:41.025Z,87.65
2023-01-19T02:39:09.610Z,87.50
2023-01-19T02:41:45.263Z,87.62
2023-01-19T02:44:14.212Z,87.65
2023-01-19T02:46:41.052Z,87.10
2023-01-19T02:49:07.821Z,86.84
2023-01-19T02:51:35.307Z,86.64
2023-01-19T02:54:05.096Z,86.34
2023-01-19T02:56:47.421Z,86.58
2023-01-19T02:59:31.002Z,85.99
2023-01-19T03:02:19.427Z,86.02
2023-01-19T03:04:57.445Z,84.85
2023-01-19T03:07:54.694Z,85.21
2023-01-19T03:10:42.650Z,84.65
2023-01-19T03:13:27.781Z,84.59
2023-01-19T03:16:11.464Z,84.57
2023-01-19T03:18:40.301Z,84.29
2023-01-19T03:21:08.672Z,84.48
2023-01-19T03:23:40.490Z,83.80
2023-01-19T03:26:10.859Z,83.68
2023-01-19T03:28:40.995Z,83.27
2023-01-19T03:31:34.384Z,83.62
2023-01-19T03:34:06.811Z,83.88
2023-01-19T03:36:37.605Z,84.06
2023-01-19T03:39:06.810Z,84.03
2023-01-19T03:41:35.516Z,83.73
2023-01-19T03:44:03.381Z,83.31
2023-01-19T03:46:31.455Z,83.81
2023-01-19T03:48:58.531Z,83.34
2023-01-19T03:51:24.944Z,84.01
2023-01-19T03:53:51.459Z,84.04
2023-01-19T03:56:19.123Z,83.59
2023-01-19T03:58:45.934Z,83.53
2023-01-19T04:01:14.860Z,83.58
2023-01-19T04:03:42.205Z,83.63
2023-01-19T04:06:09.588Z,83.52
2023-01-19T04:08:36.929Z,83.68
2023-01-19T04:11:03.459Z,83.12
2023-01-19T04:13:31.426Z,83.28
2023-01-19T04:16:02.314Z,82.97
2023-01-19T04:18:31.940Z,83.41
2023-01-19T04:21:02.201Z,83.55
2023-01-19T04:23:28.969Z,84.04
2023-01-19T04:25:59.200Z,84.40
2023-01-19T04:28:26.131Z,83.65
2023-01-19T04:30:52.645Z,83.41
2023-01-19T04:33:19.869Z,83.75
2023-01-19T04:35:47.342Z,83.38
2023-01-19T04:38:13.786Z,83.25
2023-01-19T04:40:40.517Z,83.57
2023-01-19T04:43:07.876Z,83.64
2023-01-19T04:45:34.418Z,84.20
2023-01-19T04:48:01.234Z,83.71
2023-01-19T04:50:27.601Z,83.42
2023-01-19T04:52:53.998Z,84.06
2023-01-19T04:55:20.435Z,83.87
2023-01-19T04:57:46.845Z,83.75
2023-01-19T05:00:13.621Z,83.81
2023-01-19T05:02:42.147Z,83.60
2023-01-19T05:05:08.910Z,83.37
2023-01-19T05:07:35.811Z,84.00
2023-01-19T05:10:02.386Z,83.28
2023-01-19T05:12:28.778Z,83.59
2023-01-19T05:14:55.249Z,84.01
2023-01-19T05:17:22.375Z,83.49
2023-01-19T05:19:48.996Z,84.09
2023-01-19T05:22:16.186Z,84.26
2023-01-19T05:24:42.736Z,83.23
2023-01-19T05:27:09.404Z,82.92
2023-01-19T05:29:35.894Z,82.91
2023-01-19T05:32:02.889Z,82.34
2023-01-19T05:34:29.537Z,82.71
2023-01-19T05:36:56.644Z,82.94
2023-01-19T05:39:23.042Z,82.65
2023-01-19T05:41:49.462Z,83.34
2023-01-19T05:44:15.888Z,82.88
2023-01-19T05:46:42.397Z,82.61
2023-01-19T05:49:08.993Z,82.30
2023-01-19T05:51:38.059Z,82.11
2023-01-19T05:54:06.115Z,81.68
2023-01-19T05:56:33.109Z,81.93
2023-01-19T05:59:00.540Z,82.06
2023-01-19T06:01:28.204Z,81.78
2023-01-19T06:03:55.094Z,81.87
2023-01-19T06:06:21.540Z,80.89
2023-01-19T06:08:48.147Z,80.95
2023-01-19T06:11:14.580Z,80.22
2023-01-19T06:13:42.255Z,80.42
2023-01-19T06:16:10.453Z,80.21
2023-01-19T06:18:37.123Z,80.30
2023-01-19T06:21:08.548Z,80.89
2023-01-19T06:23:36.450Z,81.04
2023-01-19T06:26:03.786Z,80.34
2023-01-19T06:28:30.510Z,80.61
2023-01-19T06:30:57.365Z,80.38
2023-01-19T06:33:24.808Z,80.39
2023-01-19T06:35:51.862Z,79.89
2023-01-19T06:38:19.370Z,80.38
2023-01-19T06:40:51.536Z,80.47
2023-01-19T06:43:18.199Z,80.46
2023-01-19T06:45:46.101Z,80.17
2023-01-19T06:48:12.658Z,80.15
2023-01-19T06:50:39.235Z,80.66
2023-01-19T06:53:05.792Z,80.56
2023-01-19T06:55:32.282Z,80.67
2023-01-19T06:57:59.373Z,80.92
2023-01-19T07:00:26.107Z,81.33
2023-01-19T07:02:52.838Z,80.76
2023-01-19T07:05:19.364Z,81.17
2023-01-19T07:07:51.935Z,81.25
2023-01-19T07:10:18.634Z,80.79
2023-01-19T07:12:47.112Z,80.73
2023-01-19T07:15:19.598Z,81.37
2023-01-19T07:17:46.270Z,80.96
2023-01-19T07:20:14.294Z,80.57
2023-01-19T07:22:43.477Z,80.38
2023-01-19T07:25:10.206Z,81.52
2023-01-19T07:27:36.935Z,80.78
2023-01-19T07:30:04.607Z,80.62
2023-01-19T07:32:31.159Z,81.24
2023-01-19T07:34:57.634Z,81.20
2023-01-19T07:37:24.101Z,81.10
2023-01-19T07:39:50.511Z,80.90
2023-01-19T07:42:17.004Z,80.46
2023-01-19T07:44:43.462Z,81.06
2023-01-19T07:47:12.533Z,81.45
2023-01-19T07:49:39.729Z,80.78
2023-01-19T07:52:06.220Z,81.02
2023-01-19T07:54:33.057Z,81.68
2023-01-19T07:57:00.903Z,81.55
2023-01-19T07:59:30.085Z,81.02
2023-01-19T08:01:59.158Z,81.56
2023-01-19T08:04:27.305Z,81.46
2023-01-19T08:06:55.044Z,81.72
2023-01-19T08:09:21.633Z,82.17
2023-01-19T08:11:48.208Z,82.98
2023-01-19T08:14:14.652Z,83.08
2023-01-19T08:16:41.124Z,83.63
2023-01-19T08:19:08.008Z,84.09
2023-01-19T08:21:35.925Z,83.88
2023-01-19T08:24:02.737Z,84.86
2023-01-19T08:26:33.605Z,85.01
2023-01-19T08:29:03.857Z,84.99
2023-01-19T08:31:31.230Z,85.90
2023-01-19T08:33:58.065Z,86.79
2023-01-19T08:36:25.062Z,87.78
2023-01-19T08:38:52.120Z,87.80
2023-01-19T08:41:18.769Z,88.25
2023-01-19T08:43:45.378Z,88.88
2023-01-19T08:46:12.652Z,88.65
2023-01-19T08:48:39.997Z,89.95
2023-01-19T08:51:06.693Z,90.53
2023-01-19T08:53:33.190Z,91.95
2023-01-19T08:56:02.576Z,91.67
2023-01-19T08:58:29.440Z,92.68
2023-01-19T09:00:56.241Z,92.64
2023-01-19T09:03:22.993Z,93.34
2023-01-19T09:05:50.325Z,93.84
2023-01-19T09:08:17.098Z,94.94
2023-01-19T09:10:49.426Z,95.29
2023-01-19T09:13:16.823Z,96.13
2023-01-19T09:15:44.340Z,96.05
2023-01-19T09:18:13.876Z,96.97
2023-01-19T09:20:42.571Z,96.68
2023-01-19T09:23:16.632Z,97.19
2023-01-19T09:25:45.610Z,97.68
2023-01-19T09:28:14.654Z,97.81
2023-01-19T09:30:42.579Z,99.34
2023-01-19T09:33:12.417Z,100.00
2023-01-19T09:35:39.971Z,100.00
2023-01-19T09:38:08.895Z,100.00
2023-01-19T09:40:42.083Z,100.00
2023-01-19T09:43:13.076Z,100.00
2023-01-19T09:46:01.253Z,100.00
2023-01-19T09:48:47.314Z,100.00
2023-01-19T09:51:25.136Z,100.00
2023-01-19T09:53:56.267Z,100.00
2023-01-19T09:56:23.344Z,100.00
2023-01-19T09:58:51.366Z,100.00
2023-01-19T10:01:34.871Z,100.00
2023-01-19T10:04:15.432Z,100.00
2023-01-19T10:06:43.217Z,100.00
2023-01-19T10:09:35.011Z,100.00
2023-01-19T10:12:10.692Z,100.00
2023-01-19T10:14:45.412Z,100.00
2023-01-19T10:17:30.030Z,100.00
2023-01-19T10:19:58.470Z,100.00
2023-01-19T10:22:28.445Z,100.00
2023-01-19T10:24:57.048Z,100.00
2023-01-19T10:27:28.257Z,100.00
2023-01-19T10:29:54.801Z,99.20
2023-01-19T10:32:31.387Z,99.87
2023-01-19T10:34:59.445Z,99.03
2023-01-19T10:37:31.719Z,99.01
2023-01-19T10:40:07.720Z,98.25
2023-01-19T10:42:41.919Z,98.28
2023-01-19T10:45:22.798Z,98.00
2023-01-19T10:47:50.102Z,97.91
2023-01-19T10:50:29.055Z,97.65
2023-01-19T10:52:59.341Z,98.12
2023-01-19T10:55:30.525Z,97.61
2023-01-19T10:57:58.742Z,97.53
2023-01-19T11:00:31.003Z,97.10
2023-01-19T11:02:57.535Z,97.02
2023-01-19T11:05:27.483Z,97.63
2023-01-19T11:07:54.151Z,97.32
2023-01-19T11:10:22.994Z,97.17
2023-01-19T11:13:01.760Z,97.36
2023-01-19T11:15:35.790Z,97.48
2023-01-19T11:18:05.053Z,97.92
2023-01-19T11:20:44.008Z,98.10
2023-01-19T11:23:22.614Z,98.44
2023-01-19T11:25:50.921Z,98.69
2023-01-19T11:28:27.308Z,98.00
2023-01-19T11:30:59.231Z,98.71
2023-01-19T11:33:33.581Z,98.99
2023-01-19T11:36:06.519Z,99.46
2023-01-19T11:38:40.875Z,99.45
2023-01-19T11:41:27.101Z,100.00
2023-01-19T11:44:15.968Z,100.00
2023-01-19T11:46:45.928Z,100.00
2023-01-19T11:49:37.402Z,100.00
2023-01-19T11:52:19.731Z,100.00
2023-01-19T11:55:14.943Z,100.00
2023-01-19T11:57:47.662Z,100.00
2023-01-19T12:00:54.976Z,100.00
2023-01-19T12:03:32.850Z,100.00
2023-01-19T12:06:05.790Z,100.00
2023-01-19T12:08:44.759Z,100.00
2023-01-19T12:11:18.403Z,100.00
2023-01-19T12:13:46.480Z,100.00
2023-01-19T12:16:21.119Z,100.00
2023-01-19T12:18:53.203Z,100.00
2023-01-19T12:21:21.018Z,100.00
2023-01-19T12:24:05.222Z,100.00
2023-01-19T12:26:46.744Z,100.00
2023-01-19T12:29:17.194Z,100.00
2023-01-19T12:31:43.846Z,100.00
2023-01-19T12:34:26.036Z,100.00
2023-01-19T12:36:55.731Z,100.00
2023-01-19T12:39:23.038Z,100.00
2023-01-19T12:42:08.132Z,100.00
2023-01-19T12:44:35.031Z,100.00
2023-01-19T12:47:20.067Z,100.00
2023-01-19T12:49:51.079Z,100.00
2023-01-19T12:52:30.837Z,100.00
2023-01-19T12:55:01.960Z,100.00
2023-01-19T12:57:46.449Z,100.00
2023-01-19T13:00:22.010Z,100.00
2023-01-19T13:02:50.169Z,100.00
2023-01-19T13:05:19.074Z,100.00
2023-01-19T13:08:11.406Z,100.00
2023-01-19T13:11:13.716Z,100.00
2023-01-19T13:13:49.337Z,100.00
2023-01-19T13:16:18.818Z,100.00
2023-01-19T13:19:07.197Z,100.00
2023-01-19T13:21:44.637Z,100.00
2023-01-19T13:24:16.914Z,100.00
2023-01-19T13:26:55.536Z,100.00
2023-01-19T13:29:34.305Z,100.00
2023-01-19T13:32:04.543Z,100.00
2023-01-19T13:34:40.346Z,100.00
2023-01-19T13:37:15.844Z,100.00
2023-01-19T13:39:44.416Z,100.00
2023-01-19T13:42:30.185Z,100.00
2023-01-19T13:45:00.899Z,100.00
2023-01-19T13:47:41.854Z,100.00
2023-01-19T13:50:30.280Z,100.00
2023-01-19T13:52:58.803Z,100.00
2023-01-19T13:55:30.343Z,100.00
2023-01-19T13:57:57.525Z,100.00
2023-01-19T14:00:26.525Z,100.00
2023-01-19T14:02:55.042Z,100.00
2023-01-19T14:05:23.385Z,100.00
2023-01-19T14:08:02.663Z,100.00
2023-01-19T14:10:31.243Z,100.00
2023-01-19T14:13:00.071Z,100.00
2023-01-19T14:15:29.613Z,100.00
2023-01-19T14:18:30.086Z,100.00
2023-01-19T14:21:03.635Z,100.00
2023-01-19T14:23:52.548Z,100.00
2023-01-19T14:26:37.657Z,100.00
2023-01-19T14:29:23.177Z,100.00
2023-01-19T14:32:00.065Z,100.00
2023-01-19T14:34:45.876Z,100.00
2023-01-19T14:37:23.253Z,100.00
2023-01-19T14:40:08.815Z,100.00
2023-01-19T14:42:39.256Z,100.00
2023-01-19T14:45:21.908Z,100.00
2023-01-19T14:48:01.014Z,100.00
2023-01-19T14:50:36.111Z,100.00
2023-01-19T14:53:13.788Z,100.00
2023-01-19T14:55:52.125Z,100.00
2023-01-19T14:58:21.306Z,100.00
2023-01-19T15:00:48.947Z,100.00
2023-01-19T15:03:15.809Z,100.00
2023-01-19T15:05:44.905Z,100.00
2023-01-19T15:08:16.323Z,99.85
2023-01-19T15:10:43.596Z,99.23
2023-01-19T15:13:19.808Z,99.54
2023-01-19T15:15:46.718Z,99.18
2023-01-19T15:18:16.727Z,98.36
2023-01-19T15:20:43.202Z,98.98
2023-01-19T15:23:11.066Z,98.67
2023-01-19T15:25:39.515Z,98.76
2023-01-19T15:28:11.870Z,98.40
2023-01-19T15:30:38.939Z,98.77
2023-01-19T15:33:06.368Z,99.22
2023-01-19T15:35:32.791Z,98.64
2023-01-19T15:37:59.202Z,98.47
2023-01-19T15:40:25.670Z,98.38
2023-01-19T15:42:52.142Z,98.44
2023-01-19T15:45:43.359Z,98.35
2023-01-19T15:48:11.587Z,97.82
2023-01-19T15:50:41.070Z,97.67
2023-01-19T15:53:12.948Z,97.74
2023-01-19T15:55:39.393Z,98.33
2023-01-19T15:58:06.116Z,98.05
2023-01-19T16:00:34.532Z,98.88
2023-01-19T16:03:02.766Z,99.06
2023-01-19T16:05:41.878Z,99.15
2023-01-19T16:08:09.546Z,98.79
2023-01-19T16:10:36.200Z,98.73
2023-01-19T16:13:04.011Z,99.08
2023-01-19T16:15:30.421Z,98.65
2023-01-19T16:17:56.808Z,98.39
2023-01-19T16:20:23.260Z,98.59
2023-01-19T16:22:49.699Z,98.24
2023-01-19T16:25:16.223Z,97.79
2023-01-19T16:27:43.069Z,98.46
2023-01-19T16:30:11.921Z,98.40
2023-01-19T16:32:38.733Z,98.22
2023-01-19T16:35:05.819Z,99.05
2023-01-19T16:37:32.242Z,98.26
2023-01-19T16:39:58.809Z,98.44
2023-01-19T16:42:25.637Z,99.08
2023-01-19T16:44:52.086Z,98.47
2023-01-19T16:47:18.593Z,98.33
2023-01-19T16:49:44.979Z,98.32
2023-01-19T16:52:11.455Z,98.49
2023-01-19T16:54:43.500Z,98.58
2023-01-19T16:57:11.173Z,98.96
2023-01-19T16:59:39.478Z,98.93
2023-01-19T17:02:06.431Z,100.00
2023-01-19T17:04:32.963Z,99.82
2023-01-19T17:06:59.410Z,100.00
2023-01-19T17:09:25.822Z,99.53
2023-01-19T17:11:52.224Z,99.77
2023-01-19T17:14:22.922Z,100.00
2023-01-19T17:16:49.481Z,100.00
2023-01-19T17:19:18.378Z,100.00
2023-01-19T17:21:46.355Z,100.00
2023-01-19T17:24:12.962Z,100.00
2023-01-19T17:26:39.519Z,99.80
2023-01-19T17:29:08.592Z,99.84
2023-01-19T17:31:36.274Z,99.97
2023-01-19T17:34:02.918Z,99.71
2023-01-19T17:36:31.368Z,99.60
2023-01-19T17:39:00.182Z,99.16
2023-01-19T17:41:29.656Z,99.05
2023-01-19T17:43:56.375Z,98.86
2023-01-19T17:46:25.813Z,98.82
2023-01-19T17:48:57.322Z,98.92
2023-01-19T17:51:24.362Z,98.81
2023-01-19T17:53:52.114Z,98.58
2023-01-19T17:56:25.763Z,98.97
2023-01-19T17:58:52.172Z,99.19
2023-01-19T18:01:22.393Z,100.00
2023-01-19T18:03:49.412Z,98.83
2023-01-19T18:06:16.663Z,99.25
2023-01-19T18:08:46.184Z,98.97
2023-01-19T18:11:13.652Z,99.28
2023-01-19T18:13:43.501Z,99.53
2023-01-19T18:16:14.028Z,99.77
2023-01-19T18:18:41.025Z,99.67
2023-01-19T18:21:09.637Z,99.68
2023-01-19T18:23:36.629Z,100.00
2023-01-19T18:26:10.527Z,99.98
2023-01-19T18:28:37.776Z,99.56
2023-01-19T18:31:08.907Z,100.00
2023-01-19T18:33:35.625Z,98.76
2023-01-19T18:36:02.117Z,99.69
2023-01-19T18:38:28.727Z,99.92
2023-01-19T18:41:01.869Z,99.97
2023-01-19T18:43:29.104Z,100.00
2023-01-19T18:45:55.743Z,100.00
2023-01-19T18:48:22.271Z,100.00
2023-01-19T18:50:48.785Z,100.00
2023-01-19T18:53:15.278Z,100.00
2023-01-19T18:55:52.920Z,99.65
2023-01-19T18:58:19.867Z,99.77
2023-01-19T19:00:46.672Z,100.00
2023-01-19T19:03:13.385Z,99.28
2023-01-19T19:05:40.217Z,99.72
2023-01-19T19:08:06.799Z,99.32
2023-01-19T19:10:33.288Z,100.00
2023-01-19T19:12:59.800Z,99.50
2023-01-19T19:15:27.134Z,99.58
2023-01-19T19:17:54.466Z,100.00
2023-01-19T19:20:22.622Z,99.92
2023-01-19T19:22:49.419Z,100.00
2023-01-19T19:25:16.098Z,99.99
2023-01-19T19:27:45.281Z,100.00
2023-01-19T19:30:13.470Z,100.00
2023-01-19T19:32:40.100Z,99.54
2023-01-19T19:35:06.756Z,99.50
2023-01-19T19:37:33.225Z,99.48
2023-01-19T19:39:59.951Z,100.00
2023-01-19T19:42:26.392Z,100.00
2023-01-19T19:44:52.823Z,100.00
2023-01-19T19:47:19.343Z,100.00
2023-01-19T19:49:45.814Z,100.00
2023-01-19T19:52:12.224Z,99.58
2023-01-19T19:54:38.782Z,99.38
2023-01-19T19:57:05.287Z,99.11
2023-01-19T19:59:31.755Z,99.57
2023-01-19T20:01:58.426Z,99.34
2023-01-19T20:04:25.328Z,99.57
2023-01-19T20:06:52.509Z,99.27
2023-01-19T20:09:18.957Z,99.25
2023-01-19T20:11:46.642Z,99.12
2023-01-19T20:14:14.268Z,99.37
2023-01-19T20:16:40.798Z,99.60
2023-01-19T20:19:07.779Z,99.12
2023-01-19T20:21:39.886Z,100.00
2023-01-19T20:24:10.033Z,99.36
2023-01-19T20:26:40.657Z,100.00
2023-01-19T20:29:07.815Z,100.00
2023-01-19T20:31:37.360Z,99.86
2023-01-19T20:34:05.966Z,99.49
2023-01-19T20:36:33.333Z,99.68
2023-01-19T20:39:00.647Z,99.51
2023-01-19T20:41:29.462Z,100.00
2023-01-19T20:43:55.871Z,100.00
2023-01-19T20:46:22.434Z,100.00
2023-01-19T20:48:52.797Z,100.00
2023-01-19T20:51:20.232Z,100.00
2023-01-19T20:53:47.384Z,100.00
2023-01-19T20:56:14.930Z,100.00
2023-01-19T20:58:41.997Z,100.00
2023-01-19T21:01:15.404Z,100.00
2023-01-19T21:03:42.307Z,100.00
2023-01-19T21:06:09.801Z,100.00
2023-01-19T21:08:37.068Z,100.00
2023-01-19T21:11:05.591Z,100.00
2023-01-19T21:13:32.576Z,100.00
2023-01-19T21:16:00.044Z,100.00
2023-01-19T21:18:27.917Z,100.00
2023-01-19T21:20:57.379Z,100.00
2023-01-19T21:23:25.443Z,100.00
2023-01-19T21:25:53.423Z,99.63
2023-01-19T21:28:21.616Z,100.00
2023-01-19T21:30:48.716Z,100.00
2023-01-19T21:33:16.102Z,100.00
2023-01-19T21:35:55.593Z,100.00
2023-01-19T21:38:23.849Z,100.00
2023-01-19T21:40:50.289Z,100.00
2023-01-19T21:43:19.131Z,100.00
2023-01-19T21:45:46.947Z,100.00
2023-01-19T21:48:13.865Z,100.00
2023-01-19T21:50:40.316Z,100.00
2023-01-19T21:53:09.743Z,100.00
2023-01-19T21:55:36.604Z,100.00
2023-01-19T21:58:08.077Z,100.00
2023-01-19T22:00:34.578Z,100.00
2023-01-19T22:03:04.124Z,100.00
2023-01-19T22:05:36.625Z,100.00
2023-01-19T22:08:05.127Z,100.00
2023-01-19T22:10:34.547Z,100.00
2023-01-19T22:13:01.168Z,100.00
2023-01-19T22:15:28.145Z,100.00
2023-01-19T22:17:54.550Z,100.00
2023-01-19T22:20:20.984Z,100.00
2023-01-19T22:22:47.435Z,100.00
2023-01-19T22:25:14.957Z,100.00
2023-01-19T22:27:42.147Z,100.00
2023-01-19T22:30:09.251Z,99.95
2023-01-19T22:32:35.801Z,99.84
2023-01-19T22:35:04.002Z,99.44
2023-01-19T22:37:35.106Z,99.65
2023-01-19T22:40:06.499Z,99.48
2023-01-19T22:42:33.262Z,99.58
2023-01-19T22:44:59.688Z,99.50
2023-01-19T22:47:26.072Z,100.00
2023-01-19T22:49:52.488Z,100.00
2023-01-19T22:52:19.092Z,100.00
2023-01-19T22:54:45.611Z,100.00
2023-01-19T22:57:12.117Z,99.59
2023-01-19T22:59:38.600Z,99.63
2023-01-19T23:02:05.347Z,99.43
2023-01-19T23:04:31.968Z,99.65
2023-01-19T23:06:58.345Z,99.83
2023-01-19T23:12:15.062Z,99.46
2023-01-19T23:14:41.480Z,99.28
2023-01-19T23:17:08.799Z,99.42
2023-01-19T23:19:35.514Z,99.12
2023-01-19T23:22:02.032Z,99.55
2023-01-19T23:24:28.543Z,99.44
2023-01-19T23:26:54.958Z,99.90
2023-01-19T23:29:21.417Z,100.00
2023-01-19T23:31:50.297Z,100.00
2023-01-19T23:34:17.098Z,100.00
2023-01-19T23:36:43.752Z,100.00
2023-01-19T23:39:19.043Z,100.00
2023-01-19T23:41:46.079Z,100.00
2023-01-19T23:44:13.120Z,100.00
2023-01-19T23:46:39.931Z,100.00
2023-01-19T23:49:06.474Z,100.00
2023-01-19T23:51:33.461Z,100.00
2023-01-19T23:54:00.609Z,100.00
2023-01-19T23:56:30.377Z,100.00
2023-01-19T23:59:03.919Z,100.00
